Flight Track Log - Related Links

Times and Time Zones

All times are in EDT time to prevent confusion due to time zone crossing. See the AWE1710 flight status page for this flight to view local times or setup timezone preferences in your user account.

Time Position Orientation Groundspeed Altitude Reporting Facility
EDT Latitude Longitude Course Direction KTS MPH feet Rate Location/Type
Mon 01:30:46 PM 35.1928 -80.9356 165° South 173 199 1,600  Level Atlanta Center
Mon 01:31:53 PM 35.1322 -80.9278 174° South 203 234 3,000 1,657 Climbing Atlanta Center
Mon 01:33:00 PM 34.8718 -80.9686 175° South  Level Estimated
Mon 01:33:00 PM 35.0589 -80.9153 172° South 260 299 5,300  Level Atlanta Center
Mon 01:33:20 PM 35.0336 -80.9111 172° South 257 296 5,800 2,239 Climbing Atlanta Center
Mon 01:34:00 PM 34.7578 -80.9750 180° South  Level Estimated
Mon 01:34:07 PM 34.9772 -80.9081 177° South 261 300 7,800  Level Atlanta Center
Mon 01:35:00 PM 34.6438 -80.9815 180° South  Level Estimated
Mon 01:35:02 PM 34.9125 -80.9006 175° South 268 308 9,400  Level Atlanta Center
Mon 01:35:20 PM 34.8853 -80.9014 181° South 282 325 9,700 1,584 Climbing Atlanta Center
Mon 01:36:00 PM 34.5299 -80.9879 165° South  Level Estimated
Mon 01:37:07 PM 34.7219 -80.8972 179° South 327 376 12,700  Level Jacksonville Center
Mon 01:38:07 PM 34.6175 -80.8969 180° South 352 405 13,600 1,250 Climbing Jacksonville Center
Mon 01:39:07 PM 34.5111 -80.8919 178° South 382 440 15,200 1,650 Climbing Jacksonville Center
Mon 01:40:07 PM 34.4050 -80.9144 190° South 388 447 16,900 1,450 Climbing Jacksonville Center
Mon 01:41:07 PM 34.2931 -80.9472 194° South 393 452 18,100 1,200 Climbing Jacksonville Center
Mon 01:42:07 PM 34.1869 -80.9722 191° South 402 463 19,300 1,140 Climbing Jacksonville Center
Mon 01:43:08 PM 34.0747 -80.9997 191° South 408 470 20,400 1,150 Climbing Jacksonville Center
Mon 01:44:07 PM 33.9603 -81.0322 193° South 414 476 21,600 1,160 Climbing Jacksonville Center
Mon 01:45:07 PM 33.8439 -81.0572 190° South 426 490 22,700 900 Climbing Jacksonville Center
Mon 01:46:07 PM 33.7208 -81.0622 182° South 431 496 23,400 750 Climbing Jacksonville Center
Mon 01:47:07 PM 33.5936 -81.0675 182° South 448 516 24,200 750 Climbing Jacksonville Center
Mon 01:48:07 PM 33.4664 -81.0775 184° South 453 521 24,900 650 Climbing Jacksonville Center
Mon 01:49:07 PM 33.3394 -81.0975 187° South 465 535 25,500 700 Climbing Jacksonville Center
Mon 01:50:07 PM 33.2206 -81.1097 185° South 471 542 26,300 950 Climbing Jacksonville Center
Mon 01:51:07 PM 33.0914 -81.1247 186° South 471 542 27,400 1,150 Climbing Jacksonville Center
Mon 01:52:07 PM 32.9644 -81.1372 185° South 471 542 28,600 1,200 Climbing Jacksonville Center
Mon 01:53:07 PM 32.8350 -81.1497 185° South 471 542 29,800 700 Climbing Jacksonville Center
Mon 01:54:07 PM 32.7097 -81.1469 179° South 466 536 30,000 100 Climbing Jacksonville Center
Mon 01:55:07 PM 32.5719 -81.1497 181° South 453 521 30,000  Level Jacksonville Center
Mon 01:56:07 PM 32.4447 -81.1497 180° South 459 528 30,000  Level Jacksonville Center
Mon 01:57:08 PM 32.3300 -81.1494 180° South 459 528 30,000  Level Jacksonville Center
Mon 01:58:07 PM 32.2047 -81.1469 179° South 454 522 30,000  Level Jacksonville Center
Mon 01:59:07 PM 32.0897 -81.1467 180° South 442 509 30,000  Level Jacksonville Center
Mon 02:00:07 PM 31.9772 -81.1511 182° South 418 481 30,000  Level Jacksonville Center
Mon 02:01:07 PM 31.8561 -81.1511 180° South 407 468 30,000  Level Jacksonville Center
Mon 02:02:07 PM 31.7475 -81.1506 180° South 401 461 30,000  Level Jacksonville Center
Mon 02:03:07 PM 31.6325 -81.1503 180° South 401 461 30,000  Level Jacksonville Center
Mon 02:04:07 PM 31.5178 -81.1500 180° South 406 467 30,000  Level Jacksonville Center
Mon 02:05:07 PM 31.4175 -81.1494 180° South 406 467 30,000  Level Jacksonville Center
Mon 02:06:07 PM 31.3006 -81.1517 181° South 406 467 30,000  Level Jacksonville Center
Mon 02:07:07 PM 31.1858 -81.1539 181° South 406 467 30,000  Level Jacksonville Center
Mon 02:08:07 PM 31.0731 -81.1533 180° South 406 467 30,000  Level Jacksonville Center
Mon 02:09:07 PM 30.9583 -81.1533 180° South 406 467 30,000  Level Jacksonville Center
Mon 02:10:07 PM 30.8456 -81.1528 180° South 406 467 30,000  Level Jacksonville Center
Mon 02:11:07 PM 30.7306 -81.1525 180° South 406 467 30,000  Level Jacksonville Center
Mon 02:12:07 PM 30.6158 -81.1547 181° South 406 467 30,000  Level Jacksonville Center
Mon 02:13:07 PM 30.5031 -81.1494 178° South 406 467 30,000 -150 Level Jacksonville Center
Mon 02:14:07 PM 30.3881 -81.1467 179° South 406 467 29,700 -900 Descending Jacksonville Center
Mon 02:15:07 PM 30.2669 -81.1442 179° South 406 467 28,200 -1,550 Descending Jacksonville Center
Mon 02:16:07 PM 30.1583 -81.1414 179° South 401 461 26,600 -1,450 Descending Jacksonville Center
Mon 02:17:07 PM 30.0542 -81.1383 179° South 391 450 25,300 -1,450 Descending Jacksonville Center
Mon 02:18:07 PM 29.9539 -81.1353 178° South 380 437 23,700 -1,600 Descending Jacksonville Center
Mon 02:19:07 PM 29.8578 -81.1322 178° South 360 414 22,100 -1,550 Descending Jacksonville Center
Mon 02:20:07 PM 29.7636 -81.1317 180° South 348 400 20,600 -1,500 Descending Jacksonville Center
Mon 02:21:07 PM 29.6719 -81.1286 178° South 342 394 19,100 -1,500 Descending Jacksonville Center
Mon 02:22:07 PM 29.5861 -81.1253 178° South 330 380 17,600 -1,488 Descending Jacksonville Center
Mon 02:23:08 PM 29.4964 -81.1244 180° South 325 374 16,100 -1,289 Descending Jacksonville Center
Mon 02:24:08 PM 29.4128 -81.1189 177° South 319 367 15,000 -555 Descending Jacksonville Center
Mon 02:25:07 PM 29.3314 -81.1156 178° South 306 352 15,000  Level Jacksonville Center
Mon 02:26:07 PM 29.2558 -81.0861 161° South 281 323 15,000  Level Jacksonville Center
Mon 02:27:07 PM 29.2881 -80.9997 67° East 176 203 15,000  Level Jacksonville Center
Mon 02:28:07 PM 29.3736 -81.0028 358° North 160 184 15,000  Level Jacksonville Center
Mon 02:29:07 PM 29.4592 -80.9989 North 225 259 15,000  Level Jacksonville Center
Mon 02:30:07 PM 29.5406 -81.0044 357° North 266 306 15,000  Level Jacksonville Center
Mon 02:31:08 PM 29.6019 -81.0508 327° Northwest 273 314 15,000  Level Jacksonville Center
Mon 02:32:07 PM 29.5569 -81.1186 233° Southwest 168 193 15,000  Level Jacksonville Center
Mon 02:33:07 PM 29.4733 -81.1178 180° South 196 226 15,000  Level Jacksonville Center
Mon 02:34:07 PM 29.4061 -81.0786 153° Southeast 222 255 15,000  Level Jacksonville Center
Mon 02:35:07 PM 29.3858 -80.9789 103° East 228 262 15,000  Level Jacksonville Center
Mon 02:36:07 PM 29.3447 -80.8939 119° Southeast 265 305 15,000  Level Jacksonville Center
Mon 02:37:07 PM 29.2789 -80.9475 215° Southwest 193 222 15,000  Level Jacksonville Center
Mon 02:38:07 PM 29.2614 -81.0431 258° West 221 254 15,000 -100 Level Jacksonville Center
Mon 02:39:07 PM 29.2253 -81.1294 244° Southwest 264 304 14,800 -600 Descending Jacksonville Center
Mon 02:40:07 PM 29.1739 -81.2042 232° Southwest 289 333 13,800 -1,050 Descending Jacksonville Center
Mon 02:41:07 PM 29.1142 -81.2597 219° Southwest 303 349 12,700 -950 Descending Jacksonville Center
Mon 02:42:07 PM 29.0283 -81.2422 170° South 276 318 11,900 -900 Descending Jacksonville Center
Mon 02:43:07 PM 28.9528 -81.2125 161° South 288 331 10,900 -1,277 Descending Jacksonville Center
Mon 02:44:42 PM 28.8333 -81.1667 161° South 273 314 8,600 -1,200 Descending Orlando TRACON
Mon 02:45:42 PM 28.7667 -81.2000 204° Southwest 245 282 7,800 -900 Descending Orlando TRACON
Mon 02:46:42 PM 28.7167 -81.2333 210° Southwest 213 245 6,800 -1,339 Descending Orlando TRACON
Mon 02:47:43 PM 28.6667 -81.2667 210° Southwest 206 237 5,100 -1,736 Descending Orlando TRACON
Mon 02:48:43 PM 28.6167 -81.2833 196° South 200 230 3,300 -1,800 Descending Orlando TRACON

Login

Don't have an account? Register now (free) for customized features, flight alerts, and more!